sensor_id;sensor_type;location;lat;lon;timestamp;temperature;humidity
32147;DHT22;32190;49.112;8.598;2022-08-21T00:00:18;25.60;39.00
32147;DHT22;32190;49.112;8.598;2022-08-21T00:06:09;25.40;39.20
32147;DHT22;32190;49.112;8.598;2022-08-21T00:12:00;25.30;39.40
32147;DHT22;32190;49.112;8.598;2022-08-21T00:17:51;25.30;39.50
32147;DHT22;32190;49.112;8.598;2022-08-21T00:23:42;25.30;39.70
32147;DHT22;32190;49.112;8.598;2022-08-21T00:29:32;25.20;39.70
32147;DHT22;32190;49.112;8.598;2022-08-21T00:35:30;25.10;39.80
32147;DHT22;32190;49.112;8.598;2022-08-21T00:41:21;25.10;40.10
32147;DHT22;32190;49.112;8.598;2022-08-21T00:47:13;25.00;40.20
32147;DHT22;32190;49.112;8.598;2022-08-21T00:53:05;24.90;40.40
32147;DHT22;32190;49.112;8.598;2022-08-21T00:58:57;24.80;40.60
32147;DHT22;32190;49.112;8.598;2022-08-21T01:04:50;24.70;40.80
32147;DHT22;32190;49.112;8.598;2022-08-21T01:10:41;24.50;40.80
32147;DHT22;32190;49.112;8.598;2022-08-21T01:16:32;24.50;41.00
32147;DHT22;32190;49.112;8.598;2022-08-21T01:22:23;24.50;41.20
32147;DHT22;32190;49.112;8.598;2022-08-21T01:28:14;24.30;41.20
32147;DHT22;32190;49.112;8.598;2022-08-21T01:34:05;24.20;41.40
32147;DHT22;32190;49.112;8.598;2022-08-21T01:39:56;24.10;41.60
32147;DHT22;32190;49.112;8.598;2022-08-21T01:45:46;24.00;41.70
32147;DHT22;32190;49.112;8.598;2022-08-21T01:51:37;24.00;41.90
32147;DHT22;32190;49.112;8.598;2022-08-21T01:57:27;23.90;42.00
32147;DHT22;32190;49.112;8.598;2022-08-21T02:03:18;23.90;42.20
32147;DHT22;32190;49.112;8.598;2022-08-21T02:09:10;23.90;42.30
32147;DHT22;32190;49.112;8.598;2022-08-21T02:15:03;23.90;42.30
32147;DHT22;32190;49.112;8.598;2022-08-21T02:20:54;23.90;42.40
32147;DHT22;32190;49.112;8.598;2022-08-21T02:26:45;23.90;42.20
32147;DHT22;32190;49.112;8.598;2022-08-21T02:32:35;23.90;42.20
32147;DHT22;32190;49.112;8.598;2022-08-21T02:38:30;23.80;42.30
32147;DHT22;32190;49.112;8.598;2022-08-21T02:44:21;23.90;42.60
32147;DHT22;32190;49.112;8.598;2022-08-21T02:50:11;23.90;42.50
32147;DHT22;32190;49.112;8.598;2022-08-21T02:56:06;23.80;42.40
32147;DHT22;32190;49.112;8.598;2022-08-21T03:01:56;23.80;42.60
32147;DHT22;32190;49.112;8.598;2022-08-21T03:07:47;23.70;42.50
32147;DHT22;32190;49.112;8.598;2022-08-21T03:13:38;23.70;42.70
32147;DHT22;32190;49.112;8.598;2022-08-21T03:19:29;23.60;42.80
32147;DHT22;32190;49.112;8.598;2022-08-21T03:25:20;23.60;42.90
32147;DHT22;32190;49.112;8.598;2022-08-21T03:31:11;23.50;42.90
32147;DHT22;32190;49.112;8.598;2022-08-21T03:37:06;23.40;43.00
32147;DHT22;32190;49.112;8.598;2022-08-21T03:42:56;23.30;43.10
32147;DHT22;32190;49.112;8.598;2022-08-21T03:48:47;23.20;43.20
32147;DHT22;32190;49.112;8.598;2022-08-21T03:54:39;23.10;43.40
32147;DHT22;32190;49.112;8.598;2022-08-21T04:00:32;23.00;43.50
32147;DHT22;32190;49.112;8.598;2022-08-21T04:06:22;22.90;43.60
32147;DHT22;32190;49.112;8.598;2022-08-21T04:12:13;22.90;43.80
32147;DHT22;32190;49.112;8.598;2022-08-21T04:18:04;22.80;43.80
32147;DHT22;32190;49.112;8.598;2022-08-21T04:23:55;22.80;44.00
32147;DHT22;32190;49.112;8.598;2022-08-21T04:29:46;22.80;44.10
32147;DHT22;32190;49.112;8.598;2022-08-21T04:35:37;22.80;44.00
32147;DHT22;32190;49.112;8.598;2022-08-21T04:41:27;22.80;44.20
32147;DHT22;32190;49.112;8.598;2022-08-21T04:47:18;22.70;44.30
32147;DHT22;32190;49.112;8.598;2022-08-21T04:53:20;22.60;44.10
32147;DHT22;32190;49.112;8.598;2022-08-21T04:59:16;22.60;44.60
32147;DHT22;32190;49.112;8.598;2022-08-21T05:05:08;22.60;44.50
32147;DHT22;32190;49.112;8.598;2022-08-21T05:10:59;22.60;44.40
32147;DHT22;32190;49.112;8.598;2022-08-21T05:16:49;22.60;44.70
32147;DHT22;32190;49.112;8.598;2022-08-21T05:22:40;22.60;44.60
32147;DHT22;32190;49.112;8.598;2022-08-21T05:28:31;22.60;44.90
32147;DHT22;32190;49.112;8.598;2022-08-21T05:34:23;22.60;44.90
32147;DHT22;32190;49.112;8.598;2022-08-21T05:40:14;22.60;45.30
32147;DHT22;32190;49.112;8.598;2022-08-21T05:46:06;22.50;45.20
32147;DHT22;32190;49.112;8.598;2022-08-21T05:51:57;22.50;45.50
32147;DHT22;32190;49.112;8.598;2022-08-21T05:57:47;22.50;45.70
32147;DHT22;32190;49.112;8.598;2022-08-21T06:03:39;22.50;45.90
32147;DHT22;32190;49.112;8.598;2022-08-21T06:09:31;22.50;45.60
32147;DHT22;32190;49.112;8.598;2022-08-21T06:15:21;22.50;45.40
32147;DHT22;32190;49.112;8.598;2022-08-21T06:21:12;22.60;46.00
32147;DHT22;32190;49.112;8.598;2022-08-21T06:27:07;22.60;45.90
32147;DHT22;32190;49.112;8.598;2022-08-21T06:32:58;22.60;45.70
32147;DHT22;32190;49.112;8.598;2022-08-21T06:38:48;22.70;46.00
32147;DHT22;32190;49.112;8.598;2022-08-21T06:44:39;22.90;46.10
32147;DHT22;32190;49.112;8.598;2022-08-21T06:50:30;23.30;46.10
32147;DHT22;32190;49.112;8.598;2022-08-21T06:56:21;24.10;45.90
32147;DHT22;32190;49.112;8.598;2022-08-21T07:02:12;25.00;44.90
32147;DHT22;32190;49.112;8.598;2022-08-21T07:08:02;25.70;44.10
32147;DHT22;32190;49.112;8.598;2022-08-21T07:13:53;26.20;43.30
32147;DHT22;32190;49.112;8.598;2022-08-21T07:19:46;26.40;43.00
32147;DHT22;32190;49.112;8.598;2022-08-21T07:25:37;26.40;42.80
32147;DHT22;32190;49.112;8.598;2022-08-21T07:31:28;26.50;42.60
32147;DHT22;32190;49.112;8.598;2022-08-21T07:37:19;26.60;42.60
32147;DHT22;32190;49.112;8.598;2022-08-21T07:43:09;26.70;42.10
32147;DHT22;32190;49.112;8.598;2022-08-21T07:49:01;26.70;41.90
32147;DHT22;32190;49.112;8.598;2022-08-21T07:54:52;26.70;41.90
32147;DHT22;32190;49.112;8.598;2022-08-21T08:00:43;26.70;41.60
32147;DHT22;32190;49.112;8.598;2022-08-21T08:06:34;26.60;41.50
32147;DHT22;32190;49.112;8.598;2022-08-21T08:12:24;26.50;41.30
32147;DHT22;32190;49.112;8.598;2022-08-21T08:18:19;26.40;41.20
32147;DHT22;32190;49.112;8.598;2022-08-21T08:24:10;26.30;41.30
32147;DHT22;32190;49.112;8.598;2022-08-21T08:30:00;26.20;41.30
32147;DHT22;32190;49.112;8.598;2022-08-21T08:35:51;26.20;41.40
32147;DHT22;32190;49.112;8.598;2022-08-21T08:41:43;26.10;41.20
32147;DHT22;32190;49.112;8.598;2022-08-21T08:47:38;26.00;41.00
32147;DHT22;32190;49.112;8.598;2022-08-21T08:53:43;25.90;41.60
32147;DHT22;32190;49.112;8.598;2022-08-21T08:59:43;25.90;41.30
32147;DHT22;32190;49.112;8.598;2022-08-21T09:05:44;25.90;41.60
32147;DHT22;32190;49.112;8.598;2022-08-21T09:12:06;26.00;41.80
32147;DHT22;32190;49.112;8.598;2022-08-21T09:18:25;26.00;41.30
32147;DHT22;32190;49.112;8.598;2022-08-21T09:30:14;26.10;41.40
32147;DHT22;32190;49.112;8.598;2022-08-21T09:36:05;26.20;41.20
32147;DHT22;32190;49.112;8.598;2022-08-21T09:42:02;26.20;40.90
32147;DHT22;32190;49.112;8.598;2022-08-21T09:47:54;26.30;40.10
32147;DHT22;32190;49.112;8.598;2022-08-21T09:53:49;26.40;40.10
32147;DHT22;32190;49.112;8.598;2022-08-21T09:59:42;26.50;39.90
32147;DHT22;32190;49.112;8.598;2022-08-21T10:05:34;26.60;40.00
32147;DHT22;32190;49.112;8.598;2022-08-21T10:11:27;26.70;39.60
32147;DHT22;32190;49.112;8.598;2022-08-21T10:17:30;26.80;39.50
32147;DHT22;32190;49.112;8.598;2022-08-21T10:23:51;26.90;39.40
32147;DHT22;32190;49.112;8.598;2022-08-21T10:29:53;27.10;39.40
32147;DHT22;32190;49.112;8.598;2022-08-21T10:35:53;27.10;38.80
32147;DHT22;32190;49.112;8.598;2022-08-21T10:48:02;27.40;38.60
32147;DHT22;32190;49.112;8.598;2022-08-21T10:54:05;27.60;37.60
32147;DHT22;32190;49.112;8.598;2022-08-21T11:00:06;27.70;37.90
32147;DHT22;32190;49.112;8.598;2022-08-21T11:06:23;27.80;38.10
32147;DHT22;32190;49.112;8.598;2022-08-21T11:12:40;27.90;37.60
32147;DHT22;32190;49.112;8.598;2022-08-21T11:18:37;27.90;37.40
32147;DHT22;32190;49.112;8.598;2022-08-21T11:30:47;28.00;36.90
32147;DHT22;32190;49.112;8.598;2022-08-21T11:49:41;28.50;36.70
32147;DHT22;32190;49.112;8.598;2022-08-21T12:01:36;28.80;36.20
32147;DHT22;32190;49.112;8.598;2022-08-21T12:13:30;29.00;35.20
32147;DHT22;32190;49.112;8.598;2022-08-21T12:25:19;29.10;35.80
32147;DHT22;32190;49.112;8.598;2022-08-21T12:31:25;29.20;35.40
32147;DHT22;32190;49.112;8.598;2022-08-21T12:37:43;29.30;35.30
32147;DHT22;32190;49.112;8.598;2022-08-21T12:43:41;29.40;35.00
32147;DHT22;32190;49.112;8.598;2022-08-21T12:49:37;29.50;35.00
32147;DHT22;32190;49.112;8.598;2022-08-21T12:55:30;29.60;34.40
32147;DHT22;32190;49.112;8.598;2022-08-21T13:01:31;29.70;34.70
32147;DHT22;32190;49.112;8.598;2022-08-21T13:07:30;29.80;33.40
32147;DHT22;32190;49.112;8.598;2022-08-21T13:13:24;29.90;33.70
32147;DHT22;32190;49.112;8.598;2022-08-21T13:19:17;30.00;33.60
32147;DHT22;32190;49.112;8.598;2022-08-21T13:25:13;30.10;33.30
32147;DHT22;32190;49.112;8.598;2022-08-21T13:31:08;30.10;32.60
32147;DHT22;32190;49.112;8.598;2022-08-21T13:37:06;30.20;33.20
32147;DHT22;32190;49.112;8.598;2022-08-21T13:42:59;30.30;32.80
32147;DHT22;32190;49.112;8.598;2022-08-21T13:48:50;30.40;32.60
32147;DHT22;32190;49.112;8.598;2022-08-21T13:54:42;30.40;32.50
32147;DHT22;32190;49.112;8.598;2022-08-21T14:00:51;30.60;33.20
32147;DHT22;32190;49.112;8.598;2022-08-21T14:06:42;30.60;32.90
32147;DHT22;32190;49.112;8.598;2022-08-21T14:12:47;30.80;32.50
32147;DHT22;32190;49.112;8.598;2022-08-21T14:25:00;31.00;32.50
32147;DHT22;32190;49.112;8.598;2022-08-21T14:30:52;31.10;32.70
32147;DHT22;32190;49.112;8.598;2022-08-21T14:36:44;31.30;32.50
32147;DHT22;32190;49.112;8.598;2022-08-21T14:42:34;31.30;31.60
32147;DHT22;32190;49.112;8.598;2022-08-21T14:48:25;31.40;31.20
32147;DHT22;32190;49.112;8.598;2022-08-21T14:54:15;31.40;31.80
32147;DHT22;32190;49.112;8.598;2022-08-21T15:00:07;31.50;31.30
32147;DHT22;32190;49.112;8.598;2022-08-21T15:05:59;31.60;31.60
32147;DHT22;32190;49.112;8.598;2022-08-21T15:11:52;31.70;31.70
32147;DHT22;32190;49.112;8.598;2022-08-21T15:17:43;31.70;31.60
32147;DHT22;32190;49.112;8.598;2022-08-21T15:23:33;31.80;31.00
32147;DHT22;32190;49.112;8.598;2022-08-21T15:29:25;31.90;30.60
32147;DHT22;32190;49.112;8.598;2022-08-21T15:35:17;31.90;30.40
32147;DHT22;32190;49.112;8.598;2022-08-21T15:41:07;31.90;29.90
32147;DHT22;32190;49.112;8.598;2022-08-21T15:46:58;31.80;30.30
32147;DHT22;32190;49.112;8.598;2022-08-21T15:52:49;31.90;31.50
32147;DHT22;32190;49.112;8.598;2022-08-21T15:58:40;31.90;30.70
32147;DHT22;32190;49.112;8.598;2022-08-21T16:04:30;32.00;30.70
32147;DHT22;32190;49.112;8.598;2022-08-21T16:10:23;32.10;29.90
32147;DHT22;32190;49.112;8.598;2022-08-21T16:16:20;32.10;30.00
32147;DHT22;32190;49.112;8.598;2022-08-21T16:22:11;32.10;29.00
32147;DHT22;32190;49.112;8.598;2022-08-21T16:28:02;32.10;29.30
32147;DHT22;32190;49.112;8.598;2022-08-21T16:33:55;32.00;29.10
32147;DHT22;32190;49.112;8.598;2022-08-21T16:39:46;32.00;29.60
32147;DHT22;32190;49.112;8.598;2022-08-21T16:45:38;32.00;29.00
32147;DHT22;32190;49.112;8.598;2022-08-21T16:51:29;31.90;28.60
32147;DHT22;32190;49.112;8.598;2022-08-21T16:57:21;31.70;28.60
32147;DHT22;32190;49.112;8.598;2022-08-21T17:03:15;31.60;28.60
32147;DHT22;32190;49.112;8.598;2022-08-21T17:09:06;31.50;28.30
32147;DHT22;32190;49.112;8.598;2022-08-21T17:15:04;31.40;28.60
32147;DHT22;32190;49.112;8.598;2022-08-21T17:20:58;31.40;28.40
32147;DHT22;32190;49.112;8.598;2022-08-21T17:26:49;31.30;28.50
32147;DHT22;32190;49.112;8.598;2022-08-21T17:32:41;31.20;29.40
32147;DHT22;32190;49.112;8.598;2022-08-21T17:38:32;31.20;29.70
32147;DHT22;32190;49.112;8.598;2022-08-21T17:44:23;31.20;29.10
32147;DHT22;32190;49.112;8.598;2022-08-21T17:50:14;31.10;29.80
32147;DHT22;32190;49.112;8.598;2022-08-21T17:56:06;31.10;30.20
32147;DHT22;32190;49.112;8.598;2022-08-21T18:01:57;31.00;30.10
32147;DHT22;32190;49.112;8.598;2022-08-21T18:07:50;31.00;30.60
32147;DHT22;32190;49.112;8.598;2022-08-21T18:13:41;30.90;30.80
32147;DHT22;32190;49.112;8.598;2022-08-21T18:19:32;30.80;30.80
32147;DHT22;32190;49.112;8.598;2022-08-21T18:25:22;30.70;31.10
32147;DHT22;32190;49.112;8.598;2022-08-21T18:31:13;30.60;31.00
32147;DHT22;32190;49.112;8.598;2022-08-21T18:37:04;30.50;31.00
32147;DHT22;32190;49.112;8.598;2022-08-21T18:42:55;30.30;31.40
32147;DHT22;32190;49.112;8.598;2022-08-21T18:48:45;30.20;31.60
32147;DHT22;32190;49.112;8.598;2022-08-21T18:54:36;30.10;31.30
32147;DHT22;32190;49.112;8.598;2022-08-21T19:00:31;29.80;31.10
32147;DHT22;32190;49.112;8.598;2022-08-21T19:06:23;29.50;31.30
32147;DHT22;32190;49.112;8.598;2022-08-21T19:12:17;29.20;31.50
32147;DHT22;32190;49.112;8.598;2022-08-21T19:18:11;28.80;31.70
32147;DHT22;32190;49.112;8.598;2022-08-21T19:24:03;28.50;31.90
32147;DHT22;32190;49.112;8.598;2022-08-21T19:29:54;28.20;32.40
32147;DHT22;32190;49.112;8.598;2022-08-21T19:35:45;27.80;32.90
32147;DHT22;32190;49.112;8.598;2022-08-21T19:41:39;27.50;33.00
32147;DHT22;32190;49.112;8.598;2022-08-21T19:47:31;27.20;33.50
32147;DHT22;32190;49.112;8.598;2022-08-21T19:53:27;27.00;33.70
32147;DHT22;32190;49.112;8.598;2022-08-21T19:59:19;26.70;34.20
32147;DHT22;32190;49.112;8.598;2022-08-21T20:05:09;26.50;34.40
32147;DHT22;32190;49.112;8.598;2022-08-21T20:11:01;26.30;34.60
32147;DHT22;32190;49.112;8.598;2022-08-21T20:16:52;26.30;34.90
32147;DHT22;32190;49.112;8.598;2022-08-21T20:22:43;26.20;35.20
32147;DHT22;32190;49.112;8.598;2022-08-21T20:28:34;26.30;35.20
32147;DHT22;32190;49.112;8.598;2022-08-21T20:34:24;26.50;35.20
32147;DHT22;32190;49.112;8.598;2022-08-21T20:40:15;26.60;35.10
32147;DHT22;32190;49.112;8.598;2022-08-21T20:46:06;26.70;35.20
32147;DHT22;32190;49.112;8.598;2022-08-21T20:51:59;26.70;35.30
32147;DHT22;32190;49.112;8.598;2022-08-21T20:57:58;26.80;35.50
32147;DHT22;32190;49.112;8.598;2022-08-21T21:04:04;26.90;35.40
32147;DHT22;32190;49.112;8.598;2022-08-21T21:09:57;26.90;35.40
32147;DHT22;32190;49.112;8.598;2022-08-21T21:15:53;27.10;35.90
32147;DHT22;32190;49.112;8.598;2022-08-21T21:22:06;27.10;35.00
32147;DHT22;32190;49.112;8.598;2022-08-21T21:28:05;27.10;35.10
32147;DHT22;32190;49.112;8.598;2022-08-21T21:33:56;27.10;35.20
32147;DHT22;32190;49.112;8.598;2022-08-21T21:40:12;27.00;35.00
32147;DHT22;32190;49.112;8.598;2022-08-21T22:10:51;26.50;35.20
32147;DHT22;32190;49.112;8.598;2022-08-21T22:16:47;26.40;35.00
32147;DHT22;32190;49.112;8.598;2022-08-21T22:22:38;26.30;35.30
32147;DHT22;32190;49.112;8.598;2022-08-21T22:28:36;26.20;35.40
32147;DHT22;32190;49.112;8.598;2022-08-21T22:34:27;26.20;35.40
32147;DHT22;32190;49.112;8.598;2022-08-21T22:40:24;26.20;35.30
32147;DHT22;32190;49.112;8.598;2022-08-21T22:46:23;26.10;35.20
32147;DHT22;32190;49.112;8.598;2022-08-21T22:52:21;25.90;35.30
32147;DHT22;32190;49.112;8.598;2022-08-21T23:04:17;25.80;35.80
32147;DHT22;32190;49.112;8.598;2022-08-21T23:10:23;25.70;35.80
32147;DHT22;32190;49.112;8.598;2022-08-21T23:34:44;25.70;36.00
32147;DHT22;32190;49.112;8.598;2022-08-21T23:40:46;25.60;36.10
32147;DHT22;32190;49.112;8.598;2022-08-21T23:47:21;25.60;36.20
32147;DHT22;32190;49.112;8.598;2022-08-21T23:59:29;25.60;36.20
